createdAt,value
2023-03-05T00:02:37.865Z,10.74
2023-03-05T00:07:41.580Z,10.76
2023-03-05T00:12:46.853Z,10.52
2023-03-05T00:17:50.567Z,10.30
2023-03-05T00:22:54.225Z,10.14
2023-03-05T00:27:59.618Z,10.13
2023-03-05T00:33:03.268Z,9.94
2023-03-05T00:38:06.940Z,9.87
2023-03-05T00:43:12.604Z,9.89
2023-03-05T00:48:16.248Z,9.80
2023-03-05T00:53:20.362Z,9.84
2023-03-05T00:58:25.755Z,9.79
2023-03-05T01:03:29.636Z,9.76
2023-03-05T01:08:33.311Z,9.73
2023-03-05T01:13:38.660Z,9.69
2023-03-05T01:18:42.332Z,9.71
2023-03-05T01:23:45.943Z,9.49
2023-03-05T01:28:51.227Z,9.29
2023-03-05T01:33:55.168Z,9.06
2023-03-05T01:38:59.092Z,9.08
2023-03-05T01:44:04.532Z,9.00
2023-03-05T01:49:16.587Z,8.99
2023-03-05T01:54:23.403Z,9.10
2023-03-05T01:59:29.092Z,9.14
2023-03-05T02:04:38.869Z,8.94
2023-03-05T02:09:43.007Z,8.91
2023-03-05T02:14:51.888Z,8.88
2023-03-05T02:19:57.775Z,8.96
2023-03-05T02:25:03.706Z,9.14
2023-03-05T02:30:08.561Z,8.73
2023-03-05T02:35:12.198Z,8.64
2023-03-05T02:40:17.912Z,8.73
2023-03-05T02:45:21.727Z,8.96
2023-03-05T02:50:25.726Z,8.94
2023-03-05T02:55:31.058Z,8.87
2023-03-05T03:00:34.824Z,8.63
2023-03-05T03:05:38.474Z,8.43
2023-03-05T03:10:43.812Z,8.33
2023-03-05T03:15:47.673Z,8.33
2023-03-05T03:20:51.310Z,8.27
2023-03-05T03:25:56.604Z,8.20
2023-03-05T03:31:00.241Z,8.18
2023-03-05T03:36:05.183Z,8.07
2023-03-05T03:41:10.584Z,8.02
2023-03-05T03:46:14.248Z,7.93
2023-03-05T03:51:17.915Z,7.75
2023-03-05T03:56:24.352Z,7.84
2023-03-05T04:01:28.048Z,7.55
2023-03-05T04:06:31.781Z,7.58
2023-03-05T04:11:37.498Z,7.30
2023-03-05T04:16:41.125Z,7.42
2023-03-05T04:21:44.748Z,7.53
2023-03-05T04:26:50.046Z,7.77
2023-03-05T04:31:53.653Z,7.68
2023-03-05T04:36:57.313Z,7.85
2023-03-05T04:42:02.819Z,7.91
2023-03-05T04:47:06.703Z,8.11
2023-03-05T04:52:11.906Z,8.25
2023-03-05T04:57:17.203Z,8.27
2023-03-05T05:02:20.855Z,8.34
2023-03-05T05:07:24.490Z,8.19
2023-03-05T05:12:32.982Z,8.35
2023-03-05T05:17:36.760Z,8.31
2023-03-05T05:22:40.430Z,8.34
2023-03-05T05:27:45.712Z,8.44
2023-03-05T05:32:49.340Z,8.56
2023-03-05T05:37:53.637Z,8.46
2023-03-05T05:42:58.892Z,8.50
2023-03-05T05:48:02.549Z,8.62
2023-03-05T05:53:06.197Z,8.64
2023-03-05T05:58:11.464Z,8.57
2023-03-05T06:03:15.288Z,8.73
2023-03-05T06:08:19.239Z,8.85
2023-03-05T06:13:24.547Z,8.79
2023-03-05T06:18:28.303Z,8.81
2023-03-05T06:23:31.954Z,8.90
2023-03-05T06:28:37.276Z,9.00
2023-03-05T06:33:41.603Z,8.95
2023-03-05T06:38:46.524Z,8.95
2023-03-05T06:43:52.648Z,8.98
2023-03-05T06:48:57.359Z,9.08
2023-03-05T06:54:02.814Z,9.10
2023-03-05T06:59:08.484Z,9.04
2023-03-05T07:04:13.353Z,9.15
2023-03-05T07:09:17.173Z,9.23
2023-03-05T07:14:22.495Z,9.20
2023-03-05T07:19:26.135Z,9.27
2023-03-05T07:24:30.481Z,9.08
2023-03-05T07:29:35.765Z,9.21
2023-03-05T07:34:39.412Z,9.29
2023-03-05T07:39:43.226Z,9.33
2023-03-05T07:44:48.956Z,9.40
2023-03-05T07:49:52.656Z,9.41
2023-03-05T07:54:56.275Z,9.48
2023-03-05T08:00:01.559Z,9.45
2023-03-05T08:05:05.608Z,9.45
2023-03-05T08:10:10.616Z,9.40
2023-03-05T08:15:16.012Z,9.48
2023-03-05T08:20:19.962Z,9.37
2023-03-05T08:25:23.719Z,9.27
2023-03-05T08:30:29.046Z,9.38
2023-03-05T08:35:32.883Z,9.40
2023-03-05T08:40:36.588Z,9.20
2023-03-05T08:45:42.411Z,9.14
2023-03-05T08:50:46.061Z,9.09
2023-03-05T08:55:55.688Z,9.08
2023-03-05T09:01:01.955Z,8.85
2023-03-05T09:06:07.305Z,7.27
2023-03-05T09:11:13.337Z,7.18
2023-03-05T09:16:20.178Z,6.60
2023-03-05T09:21:23.919Z,6.60
2023-03-05T09:26:27.808Z,6.54
2023-03-05T09:31:33.154Z,6.55
2023-03-05T09:36:36.863Z,6.64
2023-03-05T09:42:03.256Z,6.74
2023-03-05T09:47:22.511Z,6.81
2023-03-05T09:52:35.497Z,7.03
2023-03-05T09:57:43.183Z,7.11
2023-03-05T10:02:52.957Z,7.04
2023-03-05T10:08:01.205Z,7.06
2023-03-05T10:13:12.440Z,7.23
2023-03-05T10:18:25.042Z,7.35
2023-03-05T10:24:06.620Z,7.36
2023-03-05T10:29:28.542Z,7.34
2023-03-05T10:35:00.170Z,7.34
2023-03-05T10:40:16.835Z,7.44
2023-03-05T10:45:22.246Z,7.36
2023-03-05T10:50:29.014Z,7.25
2023-03-05T10:55:32.915Z,7.30
2023-03-05T11:00:36.673Z,7.31
2023-03-05T11:05:47.592Z,7.41
2023-03-05T11:11:04.473Z,7.48
2023-03-05T11:16:17.060Z,7.35
2023-03-05T11:21:25.952Z,7.48
2023-03-05T11:26:29.750Z,7.45
2023-03-05T11:31:34.267Z,7.60
2023-03-05T11:36:41.098Z,7.71
2023-03-05T11:41:48.628Z,7.60
2023-03-05T11:46:57.057Z,7.60
2023-03-05T11:52:12.011Z,7.63
2023-03-05T11:57:17.720Z,7.73
2023-03-05T12:02:24.834Z,7.81
2023-03-05T12:07:37.323Z,7.98
2023-03-05T12:12:48.318Z,8.03
2023-03-05T12:18:05.756Z,7.96
2023-03-05T12:23:15.219Z,7.70
2023-03-05T12:28:40.121Z,7.63
2023-03-05T12:33:44.971Z,7.75
2023-03-05T12:38:51.188Z,7.46
2023-03-05T12:44:26.552Z,7.36
2023-03-05T12:49:36.334Z,7.32
2023-03-05T12:54:44.209Z,7.27
2023-03-05T12:59:52.066Z,6.96
2023-03-05T13:05:00.859Z,6.94
2023-03-05T13:10:06.884Z,6.86
2023-03-05T13:15:17.161Z,6.95
2023-03-05T13:20:30.754Z,6.96
2023-03-05T13:25:36.076Z,6.94
2023-03-05T13:30:40.165Z,6.82
2023-03-05T13:35:46.737Z,6.51
2023-03-05T13:41:06.521Z,6.77
2023-03-05T13:46:10.270Z,6.85
2023-03-05T13:51:16.975Z,6.71
2023-03-05T13:56:23.329Z,6.65
2023-03-05T14:01:31.953Z,6.57
2023-03-05T14:06:49.099Z,6.67
2023-03-05T14:12:03.366Z,6.68
2023-03-05T14:17:33.373Z,6.75
2023-03-05T14:22:39.796Z,6.51
2023-03-05T14:27:48.119Z,6.33
2023-03-05T14:32:54.633Z,6.25
2023-03-05T14:37:58.302Z,6.20
2023-03-05T14:43:03.997Z,6.23
2023-03-05T14:48:09.034Z,6.36
2023-03-05T14:53:18.267Z,6.40
2023-03-05T14:58:25.877Z,6.48
2023-03-05T15:03:29.591Z,6.39
2023-03-05T15:08:33.648Z,6.53
2023-03-05T15:13:38.937Z,6.53
2023-03-05T15:18:42.554Z,6.65
2023-03-05T15:23:46.146Z,7.16
2023-03-05T15:28:51.449Z,7.52
2023-03-05T15:33:55.086Z,8.11
2023-03-05T15:38:58.739Z,8.51
2023-03-05T15:44:04.025Z,9.22
2023-03-05T15:49:07.666Z,10.12
2023-03-05T15:54:11.340Z,10.15
2023-03-05T15:59:16.719Z,9.07
2023-03-05T16:04:20.408Z,8.07
2023-03-05T16:09:24.129Z,7.60
2023-03-05T16:14:31.162Z,7.65
2023-03-05T16:19:37.679Z,7.92
2023-03-05T16:24:41.460Z,8.57
2023-03-05T16:29:46.740Z,9.32
2023-03-05T16:34:50.504Z,9.73
2023-03-05T16:39:54.128Z,10.28
2023-03-05T16:44:59.387Z,10.67
2023-03-05T16:50:03.325Z,11.14
2023-03-05T16:55:07.681Z,11.02
2023-03-05T17:00:14.326Z,10.86
2023-03-05T17:05:18.085Z,11.18
2023-03-05T17:10:21.790Z,11.40
2023-03-05T17:15:27.328Z,11.49
2023-03-05T17:20:31.023Z,10.86
2023-03-05T17:25:34.674Z,9.98
2023-03-05T17:30:40.577Z,9.77
2023-03-05T17:35:44.997Z,9.74
2023-03-05T17:40:50.828Z,10.25
2023-03-05T17:45:56.177Z,11.06
2023-03-05T17:51:00.128Z,11.79
2023-03-05T17:56:06.933Z,11.95
2023-03-05T18:01:12.220Z,11.90
2023-03-05T18:06:15.945Z,12.10
2023-03-05T18:11:20.330Z,12.24
2023-03-05T18:16:25.667Z,12.84
2023-03-05T18:21:29.373Z,13.38
2023-03-05T18:26:33.040Z,13.59
2023-03-05T18:31:38.338Z,13.34
2023-03-05T18:36:42.568Z,13.34
2023-03-05T18:41:46.357Z,12.26
2023-03-05T18:46:51.672Z,12.11
2023-03-05T18:51:55.313Z,13.00
2023-03-05T18:56:58.959Z,13.02
2023-03-05T19:02:04.219Z,12.95
2023-03-05T19:07:08.026Z,13.12
2023-03-05T19:12:11.670Z,12.72
2023-03-05T19:17:18.132Z,12.71
2023-03-05T19:22:22.265Z,12.25
2023-03-05T19:27:27.131Z,12.22
2023-03-05T19:32:33.428Z,12.17
2023-03-05T19:37:37.118Z,12.31
2023-03-05T19:42:40.836Z,12.36
2023-03-05T19:47:47.088Z,11.95
2023-03-05T19:52:50.736Z,12.42
2023-03-05T19:57:54.390Z,12.91
2023-03-05T20:02:59.633Z,13.17
2023-03-05T20:08:03.286Z,13.27
2023-03-05T20:13:06.945Z,13.43
2023-03-05T20:18:12.260Z,12.63
2023-03-05T20:23:15.851Z,12.75
2023-03-05T20:28:19.535Z,13.13
2023-03-05T20:33:25.380Z,13.43
2023-03-05T20:38:29.477Z,12.69
2023-03-05T20:43:34.867Z,11.83
2023-03-05T20:48:40.161Z,12.17
2023-03-05T20:53:44.673Z,12.43
2023-03-05T20:58:48.357Z,12.42
2023-03-05T21:03:53.677Z,12.26
2023-03-05T21:08:57.607Z,12.93
2023-03-05T21:14:01.260Z,12.40
2023-03-05T21:19:06.548Z,11.99
2023-03-05T21:24:10.239Z,11.80
2023-03-05T21:29:13.890Z,11.42
2023-03-05T21:34:19.188Z,11.41
2023-03-05T21:39:22.781Z,11.59
2023-03-05T21:44:26.468Z,11.48
2023-03-05T21:49:31.759Z,11.32
2023-03-05T21:54:35.397Z,11.54
2023-03-05T21:59:41.296Z,11.60
2023-03-05T22:04:47.157Z,12.09
2023-03-05T22:09:55.112Z,12.65
2023-03-05T22:14:58.736Z,12.08
2023-03-05T22:20:04.391Z,12.18
2023-03-05T22:25:08.939Z,12.88
2023-03-05T22:30:14.271Z,13.23
2023-03-05T22:35:19.765Z,13.49
2023-03-05T22:40:23.878Z,13.53
2023-03-05T22:45:30.152Z,13.43
2023-03-05T22:50:35.443Z,12.83
2023-03-05T22:55:40.417Z,12.17
2023-03-05T23:00:44.024Z,12.28
2023-03-05T23:05:49.312Z,12.67
2023-03-05T23:10:53.577Z,12.47
2023-03-05T23:15:57.250Z,12.80
2023-03-05T23:21:02.546Z,12.76
2023-03-05T23:26:06.437Z,12.58
2023-03-05T23:31:10.121Z,12.62
2023-03-05T23:36:15.440Z,12.07
2023-03-05T23:41:19.040Z,11.61
2023-03-05T23:46:22.805Z,11.91
2023-03-05T23:51:28.121Z,11.79
2023-03-05T23:56:31.820Z,11.82
